createdAt,value
2018-03-26T00:00:21.209Z,35.33
2018-03-26T00:01:23.702Z,34.30
2018-03-26T00:02:26.198Z,36.28
2018-03-26T00:03:28.671Z,35.03
2018-03-26T00:04:31.143Z,34.30
2018-03-26T00:05:33.607Z,35.03
2018-03-26T00:06:36.077Z,35.30
2018-03-26T00:07:38.581Z,34.42
2018-03-26T00:08:41.053Z,33.55
2018-03-26T00:09:43.537Z,34.15
2018-03-26T00:10:46.781Z,36.85
2018-03-26T00:11:50.034Z,34.78
2018-03-26T00:12:52.525Z,35.10
2018-03-26T00:13:55.026Z,34.53
2018-03-26T00:14:58.281Z,37.80
2018-03-26T00:16:00.756Z,35.03
2018-03-26T00:17:03.993Z,38.65
2018-03-26T00:18:06.490Z,34.67
2018-03-26T00:19:08.961Z,35.33
2018-03-26T00:20:12.213Z,37.75
2018-03-26T00:21:14.706Z,40.58
2018-03-26T00:22:17.174Z,36.70
2018-03-26T00:23:20.437Z,35.50
2018-03-26T00:24:22.905Z,36.15
2018-03-26T00:25:25.934Z,35.22
2018-03-26T00:26:28.421Z,35.20
2018-03-26T00:27:30.909Z,37.20
2018-03-26T00:28:33.409Z,36.60
2018-03-26T00:29:36.645Z,36.45
2018-03-26T00:30:39.141Z,37.75
2018-03-26T00:31:41.613Z,38.22
2018-03-26T00:32:44.094Z,37.42
2018-03-26T00:33:47.353Z,36.17
2018-03-26T00:34:50.649Z,41.25
2018-03-26T00:35:53.885Z,35.83
2018-03-26T00:36:56.393Z,37.22
2018-03-26T00:37:58.874Z,36.88
2018-03-26T00:39:02.133Z,35.63
2018-03-26T00:40:04.601Z,37.97
2018-03-26T00:41:07.066Z,37.15
2018-03-26T00:42:09.550Z,36.85
2018-03-26T00:43:12.794Z,35.35
2018-03-26T00:44:15.282Z,37.70
2018-03-26T00:45:17.753Z,36.08
2018-03-26T00:46:20.984Z,34.55
2018-03-26T00:47:23.452Z,35.38
2018-03-26T00:48:26.929Z,35.83
2018-03-26T00:49:29.441Z,35.80
2018-03-26T00:50:31.913Z,36.33
2018-03-26T00:51:34.465Z,35.47
2018-03-26T00:52:37.701Z,37.30
2018-03-26T00:53:44.149Z,35.58
2018-03-26T00:54:46.650Z,37.17
2018-03-26T00:55:49.128Z,35.53
2018-03-26T00:56:51.605Z,36.55
2018-03-26T00:57:54.090Z,37.28
2018-03-26T00:58:58.085Z,38.67
2018-03-26T01:00:01.351Z,39.33
2018-03-26T01:01:03.834Z,38.03
2018-03-26T01:02:07.122Z,39.03
2018-03-26T01:03:09.565Z,41.20
2018-03-26T01:04:12.034Z,37.22
2018-03-26T01:05:14.533Z,37.28
2018-03-26T01:06:17.006Z,35.88
2018-03-26T01:07:19.482Z,36.45
2018-03-26T01:08:21.965Z,39.63
2018-03-26T01:09:24.430Z,41.58
2018-03-26T01:10:26.928Z,37.05
2018-03-26T01:11:30.173Z,40.17
2018-03-26T01:12:32.643Z,36.33
2018-03-26T01:13:35.109Z,37.03
2018-03-26T01:14:37.581Z,35.17
2018-03-26T01:15:40.081Z,37.47
2018-03-26T01:16:43.995Z,38.90
2018-03-26T01:17:46.477Z,37.92
2018-03-26T01:18:48.993Z,38.33
2018-03-26T01:19:51.492Z,36.88
2018-03-26T01:20:53.992Z,38.47
2018-03-26T01:21:56.461Z,43.72
2018-03-26T01:22:58.953Z,41.63
2018-03-26T01:24:02.189Z,42.70
2018-03-26T01:25:04.659Z,40.78
2018-03-26T01:26:07.171Z,46.40
2018-03-26T01:27:10.453Z,41.63
2018-03-26T01:28:13.685Z,38.55
2018-03-26T01:29:16.635Z,46.22
2018-03-26T01:30:19.126Z,39.95
2018-03-26T01:31:21.625Z,42.20
2018-03-26T01:32:24.189Z,40.47
2018-03-26T01:33:26.657Z,43.13
2018-03-26T01:34:29.126Z,44.92
2018-03-26T01:35:31.632Z,42.30
2018-03-26T01:36:34.256Z,47.03
2018-03-26T01:37:36.725Z,41.10
2018-03-26T01:38:39.218Z,42.78
2018-03-26T01:39:41.750Z,44.00
2018-03-26T01:40:45.008Z,42.83
2018-03-26T01:41:47.513Z,43.20
2018-03-26T01:42:50.755Z,47.75
2018-03-26T01:43:53.235Z,44.50
2018-03-26T01:44:55.706Z,46.83
2018-03-26T01:45:59.708Z,47.45
2018-03-26T01:47:02.977Z,48.80
2018-03-26T01:48:05.453Z,42.83
2018-03-26T01:49:07.921Z,47.30
2018-03-26T01:50:10.413Z,45.88
2018-03-26T01:51:13.649Z,47.03
2018-03-26T01:52:16.137Z,51.25
2018-03-26T01:53:18.613Z,47.38
2018-03-26T01:54:21.854Z,49.95
2018-03-26T01:55:24.349Z,48.78
2018-03-26T01:56:26.822Z,49.80
2018-03-26T01:57:30.078Z,50.22
2018-03-26T01:58:32.561Z,49.15
2018-03-26T01:59:35.123Z,52.88
2018-03-26T02:00:37.604Z,54.55
2018-03-26T02:01:40.837Z,56.97
2018-03-26T02:02:43.324Z,50.25
2018-03-26T02:03:45.803Z,54.90
2018-03-26T02:04:48.314Z,56.63
2018-03-26T02:05:51.510Z,61.05
2018-03-26T02:06:53.975Z,57.75
2018-03-26T02:07:56.561Z,56.75
2018-03-26T02:08:59.026Z,61.20
2018-03-26T02:10:01.490Z,62.58
2018-03-26T02:11:03.955Z,67.10
2018-03-26T02:12:06.429Z,68.55
2018-03-26T02:13:08.913Z,69.75
2018-03-26T02:14:12.154Z,72.35
2018-03-26T02:15:14.624Z,69.55
2018-03-26T02:16:17.093Z,71.97
2018-03-26T02:17:19.559Z,70.50
2018-03-26T02:18:22.045Z,77.60
2018-03-26T02:19:24.509Z,69.05
2018-03-26T02:20:26.979Z,85.70
2018-03-26T02:21:29.449Z,77.93
2018-03-26T02:22:32.677Z,73.05
2018-03-26T02:23:35.168Z,68.70
2018-03-26T02:24:37.741Z,77.75
2018-03-26T02:25:40.213Z,78.18
2018-03-26T02:26:42.716Z,73.93
2018-03-26T02:27:45.183Z,78.80
2018-03-26T02:28:47.669Z,76.28
2018-03-26T02:29:50.129Z,77.78
2018-03-26T02:30:52.630Z,76.82
2018-03-26T02:31:55.095Z,75.70
2018-03-26T02:32:57.558Z,80.75
2018-03-26T02:34:00.840Z,78.30
2018-03-26T02:35:03.306Z,84.25
2018-03-26T02:36:05.777Z,78.43
2018-03-26T02:37:08.242Z,84.97
2018-03-26T02:38:10.714Z,78.40
2018-03-26T02:39:13.198Z,82.75
2018-03-26T02:40:15.715Z,86.47
2018-03-26T02:41:18.197Z,81.80
2018-03-26T02:42:20.666Z,80.70
2018-03-26T02:43:23.134Z,83.40
2018-03-26T02:44:26.403Z,84.05
2018-03-26T02:45:28.881Z,82.55
2018-03-26T02:46:32.159Z,76.15
2018-03-26T02:47:34.629Z,79.10
2018-03-26T02:48:37.097Z,81.40
2018-03-26T02:49:40.370Z,78.47
2018-03-26T02:50:42.909Z,80.35
2018-03-26T02:51:46.090Z,84.53
2018-03-26T02:52:48.558Z,83.75
2018-03-26T02:53:51.028Z,80.18
2018-03-26T02:54:53.517Z,79.75
2018-03-26T02:55:55.986Z,87.03
2018-03-26T02:56:59.218Z,78.97
2018-03-26T02:58:01.702Z,88.72
2018-03-26T02:59:04.184Z,80.03
2018-03-26T03:00:07.006Z,82.72
2018-03-26T03:01:10.214Z,84.03
2018-03-26T03:02:12.681Z,86.82
2018-03-26T03:03:15.783Z,83.85
2018-03-26T03:04:18.261Z,83.37
2018-03-26T03:05:21.518Z,89.18
2018-03-26T03:06:23.987Z,85.82
2018-03-26T03:07:26.457Z,76.32
2018-03-26T03:08:28.955Z,77.20
2018-03-26T03:09:31.423Z,83.18
2018-03-26T03:10:33.939Z,71.20
2018-03-26T03:11:36.393Z,82.97
2018-03-26T03:12:38.878Z,85.10
2018-03-26T03:13:41.345Z,83.47
2018-03-26T03:14:43.822Z,88.40
2018-03-26T03:15:47.077Z,77.53
2018-03-26T03:16:49.555Z,80.32
2018-03-26T03:17:52.022Z,81.43
2018-03-26T03:18:54.489Z,85.50
2018-03-26T03:19:56.981Z,76.50
2018-03-26T03:21:00.241Z,85.70
2018-03-26T03:22:02.705Z,75.75
2018-03-26T03:23:05.168Z,80.72
2018-03-26T03:24:07.629Z,74.80
2018-03-26T03:25:10.134Z,79.40
2018-03-26T03:26:13.358Z,82.30
2018-03-26T03:27:15.821Z,75.80
2018-03-26T03:28:18.285Z,78.32
2018-03-26T03:29:20.869Z,85.95
2018-03-26T03:30:23.346Z,79.68
2018-03-26T03:31:26.617Z,78.75
2018-03-26T03:32:29.178Z,88.50
2018-03-26T03:33:31.649Z,77.45
2018-03-26T03:34:34.217Z,78.57
2018-03-26T03:35:36.701Z,82.28
2018-03-26T03:36:39.958Z,77.35
2018-03-26T03:37:42.423Z,76.95
2018-03-26T03:38:44.993Z,80.95
2018-03-26T03:39:47.461Z,76.97
2018-03-26T03:40:49.948Z,75.10
2018-03-26T03:41:53.275Z,75.40
2018-03-26T03:42:56.479Z,73.32
2018-03-26T03:43:58.960Z,77.15
2018-03-26T03:45:01.421Z,75.65
2018-03-26T03:46:04.702Z,71.62
2018-03-26T03:47:07.263Z,69.90
2018-03-26T03:48:09.727Z,76.95
2018-03-26T03:49:13.978Z,77.43
2018-03-26T03:50:16.483Z,73.35
2018-03-26T03:51:18.967Z,74.05
2018-03-26T03:52:21.473Z,75.20
2018-03-26T03:53:23.937Z,65.80
2018-03-26T03:54:26.422Z,73.18
2018-03-26T03:55:28.883Z,68.20
2018-03-26T03:56:31.351Z,74.37
2018-03-26T03:57:33.862Z,72.05
2018-03-26T03:58:36.338Z,66.43
2018-03-26T03:59:39.567Z,68.30
2018-03-26T04:00:42.043Z,73.47
2018-03-26T04:01:44.503Z,73.18
2018-03-26T04:02:47.025Z,67.37
2018-03-26T04:03:50.800Z,72.57
2018-03-26T04:04:54.181Z,68.53
2018-03-26T04:05:56.901Z,71.32
2018-03-26T04:06:59.365Z,71.50
2018-03-26T04:08:01.974Z,71.70
2018-03-26T04:09:04.458Z,67.62
2018-03-26T04:10:07.694Z,69.40
2018-03-26T04:11:10.169Z,71.78
2018-03-26T04:12:12.639Z,64.47
2018-03-26T04:13:15.133Z,66.72
2018-03-26T04:14:18.366Z,68.43
2018-03-26T04:15:20.844Z,70.65
2018-03-26T04:16:23.318Z,66.12
2018-03-26T04:17:25.791Z,65.12
2018-03-26T04:18:28.563Z,64.15
2018-03-26T04:19:31.134Z,61.70
2018-03-26T04:20:33.663Z,59.17
2018-03-26T04:21:36.132Z,62.42
2018-03-26T04:22:38.597Z,59.70
2018-03-26T04:23:41.097Z,61.03
2018-03-26T04:24:43.566Z,61.88
2018-03-26T04:25:46.069Z,59.55
2018-03-26T04:26:48.536Z,65.50
2018-03-26T04:27:51.040Z,63.05
2018-03-26T04:28:53.562Z,64.57
2018-03-26T04:29:56.025Z,62.22
2018-03-26T04:30:58.520Z,63.42
2018-03-26T04:32:01.069Z,62.15
2018-03-26T04:33:04.267Z,60.75
2018-03-26T04:34:06.749Z,59.58
2018-03-26T04:35:09.214Z,59.25
2018-03-26T04:36:11.699Z,57.20
2018-03-26T04:37:14.945Z,60.35
2018-03-26T04:38:17.411Z,58.92
2018-03-26T04:39:19.902Z,62.42
2018-03-26T04:40:22.370Z,62.25
2018-03-26T04:41:24.845Z,55.28
2018-03-26T04:42:28.075Z,56.92
2018-03-26T04:43:30.569Z,53.90
2018-03-26T04:44:33.075Z,61.15
2018-03-26T04:45:35.533Z,61.70
2018-03-26T04:46:38.079Z,60.92
2018-03-26T04:47:40.558Z,54.90
2018-03-26T04:48:44.634Z,52.35
2018-03-26T04:49:47.120Z,53.45
2018-03-26T04:50:49.865Z,54.60
2018-03-26T04:51:52.438Z,53.15
2018-03-26T04:52:54.934Z,57.35
2018-03-26T04:53:58.157Z,57.35
2018-03-26T04:55:00.637Z,56.25
2018-03-26T04:56:03.106Z,55.53
2018-03-26T04:57:05.574Z,55.40
2018-03-26T04:58:08.051Z,53.60
2018-03-26T04:59:10.533Z,54.67
2018-03-26T05:00:13.785Z,59.42
2018-03-26T05:01:16.286Z,55.50
2018-03-26T05:02:18.757Z,54.97
2018-03-26T05:03:21.219Z,60.50
2018-03-26T05:04:23.683Z,52.40
2018-03-26T05:05:26.233Z,56.45
2018-03-26T05:06:29.472Z,53.87
2018-03-26T05:07:31.941Z,56.05
2018-03-26T05:08:34.418Z,60.00
2018-03-26T05:09:36.889Z,57.53
2018-03-26T05:10:39.410Z,58.33
2018-03-26T05:11:41.901Z,55.47
2018-03-26T05:12:44.377Z,44.20
2018-03-26T05:13:46.866Z,52.45
2018-03-26T05:14:50.125Z,56.88
2018-03-26T05:15:52.619Z,54.65
2018-03-26T05:16:55.862Z,55.95
2018-03-26T05:17:58.333Z,59.38
2018-03-26T05:19:00.809Z,54.97
2018-03-26T05:20:03.305Z,62.97
2018-03-26T05:21:05.865Z,53.55
2018-03-26T05:22:09.100Z,58.80
2018-03-26T05:23:11.563Z,55.05
2018-03-26T05:24:14.028Z,63.60
2018-03-26T05:25:16.507Z,55.10
2018-03-26T05:26:19.021Z,57.97
2018-03-26T05:27:21.515Z,54.30
2018-03-26T05:28:23.985Z,57.67
2018-03-26T05:29:26.461Z,56.53
2018-03-26T05:30:28.940Z,54.28
2018-03-26T05:31:31.448Z,59.60
2018-03-26T05:32:33.951Z,57.03
2018-03-26T05:33:36.443Z,55.38
2018-03-26T05:34:38.918Z,62.42
2018-03-26T05:35:42.159Z,57.45
2018-03-26T05:36:44.642Z,56.35
2018-03-26T05:37:47.118Z,60.55
2018-03-26T05:38:49.584Z,55.85
2018-03-26T05:39:52.843Z,65.43
2018-03-26T05:40:55.320Z,60.88
2018-03-26T05:41:57.936Z,58.83
2018-03-26T05:43:00.413Z,63.00
2018-03-26T05:44:02.891Z,62.72
2018-03-26T05:45:05.375Z,61.53
2018-03-26T05:46:07.865Z,65.15
2018-03-26T05:47:11.134Z,55.00
2018-03-26T05:48:14.388Z,66.90
2018-03-26T05:49:16.889Z,59.80
2018-03-26T05:50:20.147Z,64.32
2018-03-26T05:51:22.621Z,56.22
2018-03-26T05:52:25.134Z,59.00
2018-03-26T05:53:27.609Z,65.22
2018-03-26T05:54:30.095Z,60.40
2018-03-26T05:55:32.561Z,64.15
2018-03-26T05:56:35.034Z,58.35
2018-03-26T05:57:37.536Z,60.25
2018-03-26T05:58:40.789Z,60.12
2018-03-26T05:59:43.288Z,59.60
2018-03-26T06:00:46.538Z,60.60
2018-03-26T06:01:49.014Z,61.28
2018-03-26T06:02:51.500Z,65.37
2018-03-26T06:03:54.729Z,65.47
2018-03-26T06:04:57.215Z,66.75
2018-03-26T06:05:59.700Z,64.05
2018-03-26T06:07:02.953Z,66.18
2018-03-26T06:08:05.449Z,61.20
2018-03-26T06:09:08.725Z,67.60
2018-03-26T06:10:11.194Z,69.93
2018-03-26T06:11:14.438Z,70.57
2018-03-26T06:12:16.905Z,64.95
2018-03-26T06:13:19.410Z,65.57
2018-03-26T06:14:22.649Z,68.72
2018-03-26T06:15:25.137Z,64.55
2018-03-26T06:16:29.228Z,65.28
2018-03-26T06:17:31.690Z,71.82
2018-03-26T06:18:34.187Z,69.40
2018-03-26T06:19:37.438Z,65.90
2018-03-26T06:20:39.915Z,67.37
2018-03-26T06:21:42.407Z,62.20
2018-03-26T06:22:45.642Z,69.43
2018-03-26T06:23:48.158Z,67.35
2018-03-26T06:24:51.417Z,61.63
2018-03-26T06:25:53.878Z,73.15
2018-03-26T06:26:56.359Z,67.53
2018-03-26T06:28:00.551Z,70.75
2018-03-26T06:29:03.090Z,74.25
2018-03-26T06:30:05.566Z,68.57
2018-03-26T06:31:08.038Z,70.87
2018-03-26T06:32:10.520Z,71.68
2018-03-26T06:33:13.754Z,71.78
2018-03-26T06:34:16.260Z,77.70
2018-03-26T06:35:18.737Z,75.90
2018-03-26T06:36:27.094Z,80.18
2018-03-26T06:37:30.310Z,73.07
2018-03-26T06:38:37.883Z,79.03
2018-03-26T06:39:40.380Z,77.32
2018-03-26T06:40:43.621Z,74.22
2018-03-26T06:41:46.093Z,81.97
2018-03-26T06:42:48.582Z,74.07
2018-03-26T06:43:51.871Z,81.15
2018-03-26T06:44:55.161Z,77.25
2018-03-26T06:45:57.651Z,77.90
2018-03-26T06:47:00.135Z,84.60
2018-03-26T06:48:02.618Z,72.37
2018-03-26T06:49:05.090Z,83.82
2018-03-26T06:50:07.594Z,84.45
2018-03-26T06:51:10.105Z,73.87
2018-03-26T06:52:12.583Z,81.40
2018-03-26T06:53:15.057Z,76.55
2018-03-26T06:54:17.629Z,78.80
2018-03-26T06:55:22.339Z,76.97
2018-03-26T06:56:24.827Z,77.12
2018-03-26T06:57:27.295Z,77.57
2018-03-26T06:58:29.785Z,75.22
2018-03-26T06:59:32.267Z,84.37
2018-03-26T07:00:34.777Z,77.78
2018-03-26T07:01:38.037Z,77.10
2018-03-26T07:02:40.521Z,79.60
2018-03-26T07:03:43.834Z,83.18
2018-03-26T07:04:46.323Z,73.87
2018-03-26T07:05:48.822Z,74.97
2018-03-26T07:06:52.020Z,82.37
2018-03-26T07:07:55.262Z,80.62
2018-03-26T07:08:57.774Z,85.40
2018-03-26T07:10:01.023Z,82.00
2018-03-26T07:11:03.561Z,76.90
2018-03-26T07:12:06.038Z,84.15
2018-03-26T07:13:08.617Z,90.25
2018-03-26T07:14:11.097Z,82.97
2018-03-26T07:15:13.564Z,85.85
2018-03-26T07:16:16.139Z,92.93
2018-03-26T07:17:19.429Z,90.38
2018-03-26T07:18:22.665Z,86.40
2018-03-26T07:19:25.159Z,95.03
2018-03-26T07:20:27.621Z,82.82
2018-03-26T07:21:30.135Z,88.28
2018-03-26T07:22:32.620Z,83.15
2018-03-26T07:23:35.131Z,96.93
2018-03-26T07:24:38.397Z,90.28
2018-03-26T07:25:40.894Z,103.60
2018-03-26T07:26:43.430Z,87.75
2018-03-26T07:27:46.665Z,92.12
2018-03-26T07:28:49.138Z,93.72
2018-03-26T07:29:51.618Z,105.93
2018-03-26T07:30:54.106Z,101.00
2018-03-26T07:31:56.661Z,101.15
2018-03-26T07:32:59.160Z,101.53
2018-03-26T07:34:01.653Z,104.18
2018-03-26T07:35:04.121Z,94.75
2018-03-26T07:36:06.598Z,110.47
2018-03-26T07:37:09.097Z,102.90
2018-03-26T07:38:11.591Z,101.72
2018-03-26T07:39:14.060Z,102.10
2018-03-26T07:40:16.550Z,122.82
2018-03-26T07:41:19.084Z,124.70
2018-03-26T07:42:21.665Z,124.12
2018-03-26T07:43:24.141Z,112.88
2018-03-26T07:44:27.241Z,120.75
2018-03-26T07:45:30.732Z,125.05
2018-03-26T07:46:33.245Z,115.50
2018-03-26T07:47:36.548Z,119.47
2018-03-26T07:48:39.049Z,115.03
2018-03-26T07:49:41.540Z,115.78
2018-03-26T07:50:44.789Z,105.78
2018-03-26T07:51:47.337Z,112.80
2018-03-26T07:52:49.844Z,130.73
2018-03-26T07:53:52.353Z,123.00
2018-03-26T07:54:54.845Z,126.78
2018-03-26T07:55:57.380Z,142.35
2018-03-26T07:56:59.881Z,140.40
2018-03-26T07:58:02.380Z,129.60
2018-03-26T07:59:05.619Z,143.50
2018-03-26T08:00:08.102Z,139.68
2018-03-26T08:01:10.575Z,136.23
2018-03-26T08:02:13.732Z,146.45
2018-03-26T08:03:16.406Z,151.52
2018-03-26T08:04:18.889Z,144.23
2018-03-26T08:05:21.400Z,145.70
2018-03-26T08:06:23.945Z,147.18
2018-03-26T08:07:27.243Z,133.02
2018-03-26T08:08:29.753Z,151.43
2018-03-26T08:09:32.286Z,145.73
2018-03-26T08:10:34.721Z,146.13
2018-03-26T08:11:37.962Z,136.57
2018-03-26T08:12:41.525Z,131.43
2018-03-26T08:13:44.061Z,138.80
2018-03-26T08:14:47.310Z,136.20
2018-03-26T08:15:49.794Z,141.68
2018-03-26T08:16:52.274Z,144.45
2018-03-26T08:17:56.276Z,142.32
2018-03-26T08:18:59.560Z,123.87
2018-03-26T08:20:02.807Z,137.18
2018-03-26T08:21:05.295Z,141.12
2018-03-26T08:22:07.803Z,134.00
2018-03-26T08:23:10.322Z,132.77
2018-03-26T08:24:13.621Z,123.90
2018-03-26T08:25:16.868Z,127.90
2018-03-26T08:26:19.350Z,133.60
2018-03-26T08:27:21.829Z,126.45
2018-03-26T08:28:25.104Z,129.18
2018-03-26T08:29:28.397Z,125.20
2018-03-26T08:30:31.639Z,117.87
2018-03-26T08:31:34.145Z,124.55
2018-03-26T08:32:38.319Z,112.18
2018-03-26T08:33:40.810Z,115.80
2018-03-26T08:34:44.158Z,113.40
2018-03-26T08:35:46.736Z,122.05
2018-03-26T08:36:49.262Z,121.05
2018-03-26T08:37:51.746Z,117.97
2018-03-26T08:38:54.225Z,106.37
2018-03-26T08:39:56.862Z,109.22
2018-03-26T08:40:59.374Z,112.65
2018-03-26T08:42:01.850Z,113.60
2018-03-26T08:43:05.263Z,116.65
2018-03-26T08:44:07.753Z,104.55
2018-03-26T08:45:10.284Z,107.60
2018-03-26T08:46:12.761Z,113.05
2018-03-26T08:47:15.254Z,120.68
2018-03-26T08:48:18.452Z,116.00
2018-03-26T08:49:20.921Z,110.90
2018-03-26T08:50:23.511Z,125.53
2018-03-26T08:51:25.914Z,111.15
2018-03-26T08:52:28.418Z,119.25
2018-03-26T08:53:30.972Z,115.57
2018-03-26T08:54:33.414Z,118.78
2018-03-26T08:55:35.910Z,97.35
2018-03-26T08:56:38.414Z,105.47
2018-03-26T08:57:41.659Z,101.32
2018-03-26T08:58:44.129Z,111.22
2018-03-26T08:59:46.637Z,118.15
2018-03-26T09:00:49.166Z,115.03
2018-03-26T09:01:52.471Z,111.03
2018-03-26T09:02:55.717Z,102.05
2018-03-26T09:03:58.226Z,101.30
2018-03-26T09:05:01.477Z,105.70
2018-03-26T09:06:04.023Z,96.82
2018-03-26T09:07:06.519Z,81.37
2018-03-26T09:08:09.777Z,74.68
2018-03-26T09:09:12.258Z,69.25
2018-03-26T09:10:14.739Z,66.10
2018-03-26T09:11:18.078Z,68.05
2018-03-26T09:12:21.126Z,58.87
2018-03-26T09:13:23.611Z,57.08
2018-03-26T09:14:26.081Z,62.13
2018-03-26T09:15:28.571Z,60.88
2018-03-26T09:16:31.097Z,63.83
2018-03-26T09:17:33.604Z,65.97
2018-03-26T09:19:45.069Z,61.08
2018-03-26T09:20:47.545Z,59.25
2018-03-26T09:21:50.049Z,62.88
2018-03-26T09:22:53.295Z,66.47
2018-03-26T09:23:55.796Z,64.95
2018-03-26T09:24:59.949Z,58.55
2018-03-26T09:26:04.343Z,52.97
2018-03-26T09:27:06.813Z,42.60
2018-03-26T09:28:09.282Z,46.67
2018-03-26T09:29:11.812Z,50.42
2018-03-26T09:30:14.281Z,53.67
2018-03-26T09:31:16.770Z,46.60
2018-03-26T09:32:19.266Z,50.78
2018-03-26T09:33:21.739Z,40.78
2018-03-26T09:34:24.225Z,44.13
2018-03-26T09:35:27.485Z,43.63
2018-03-26T09:36:29.969Z,44.30
2018-03-26T09:37:33.291Z,49.30
2018-03-26T09:38:35.770Z,48.20
2018-03-26T09:39:39.773Z,48.67
2018-03-26T09:40:42.257Z,47.55
2018-03-26T09:41:44.722Z,45.10
2018-03-26T09:42:48.114Z,43.67
2018-03-26T09:43:50.612Z,37.53
2018-03-26T09:44:53.080Z,37.05
2018-03-26T09:45:55.579Z,29.12
2018-03-26T09:46:58.050Z,33.72
2018-03-26T09:48:00.538Z,39.50
2018-03-26T09:49:03.054Z,34.55
2018-03-26T09:50:05.556Z,37.22
2018-03-26T09:51:08.045Z,40.15
2018-03-26T09:52:11.290Z,25.52
2018-03-26T09:53:13.853Z,30.52
2018-03-26T09:54:16.286Z,28.38
2018-03-26T09:55:18.761Z,24.98
2018-03-26T09:56:21.248Z,22.75
2018-03-26T09:57:23.738Z,25.65
2018-03-26T09:58:27.029Z,25.98
2018-03-26T09:59:29.538Z,26.98
2018-03-26T10:00:37.725Z,26.87
2018-03-26T10:01:45.839Z,21.40
2018-03-26T10:02:59.148Z,19.35
2018-03-26T10:04:01.664Z,21.33
2018-03-26T10:05:04.148Z,20.75
2018-03-26T10:06:07.424Z,15.13
2018-03-26T10:07:09.893Z,17.85
2018-03-26T10:08:13.173Z,17.27
2018-03-26T10:09:16.442Z,16.65
2018-03-26T10:10:19.003Z,15.23
2018-03-26T10:11:21.491Z,18.58
2018-03-26T10:12:24.774Z,24.00
2018-03-26T10:13:28.009Z,18.40
2018-03-26T10:14:30.497Z,21.00
2018-03-26T10:15:32.973Z,28.15
2018-03-26T10:16:35.490Z,24.55
2018-03-26T10:17:37.999Z,24.45
2018-03-26T10:18:40.522Z,26.27
2018-03-26T10:19:43.015Z,26.90
2018-03-26T10:20:45.498Z,21.33
2018-03-26T10:21:48.012Z,20.05
2018-03-26T10:22:50.511Z,20.17
2018-03-26T10:23:52.983Z,17.15
2018-03-26T10:24:55.462Z,21.70
2018-03-26T10:25:57.941Z,17.00
2018-03-26T10:27:01.186Z,17.87
2018-03-26T10:28:04.032Z,23.50
2018-03-26T10:29:06.509Z,20.48
2018-03-26T10:30:08.986Z,16.17
2018-03-26T10:31:11.464Z,19.05
2018-03-26T10:32:13.946Z,21.08
2018-03-26T10:33:17.202Z,27.35
2018-03-26T10:34:19.677Z,19.23
2018-03-26T10:35:22.153Z,19.70
2018-03-26T10:36:25.468Z,17.27
2018-03-26T10:37:27.937Z,17.17
2018-03-26T10:38:30.484Z,17.77
2018-03-26T10:39:33.723Z,18.42
2018-03-26T10:40:36.205Z,17.48
2018-03-26T10:41:38.721Z,20.25
2018-03-26T10:42:41.211Z,17.83
2018-03-26T10:43:43.698Z,14.30
2018-03-26T10:44:46.187Z,15.90
2018-03-26T10:45:49.436Z,19.77
2018-03-26T10:46:51.910Z,15.07
2018-03-26T10:47:54.419Z,13.20
2018-03-26T10:48:56.928Z,13.02
2018-03-26T10:49:59.440Z,8.38
2018-03-26T10:51:01.919Z,5.55
2018-03-26T10:52:04.385Z,6.57
2018-03-26T10:53:06.868Z,9.05
2018-03-26T10:54:09.373Z,9.13
2018-03-26T10:55:11.837Z,6.18
2018-03-26T10:56:14.310Z,8.27
2018-03-26T10:57:17.540Z,5.70
2018-03-26T10:58:20.627Z,7.37
2018-03-26T10:59:23.946Z,9.10
2018-03-26T11:00:26.442Z,6.75
2018-03-26T11:01:28.926Z,7.22
2018-03-26T11:02:31.403Z,4.37
2018-03-26T11:03:33.885Z,7.25
2018-03-26T11:04:36.405Z,5.35
2018-03-26T11:05:38.885Z,6.10
2018-03-26T11:06:41.359Z,4.95
2018-03-26T11:07:43.842Z,6.10
2018-03-26T11:08:46.333Z,7.40
2018-03-26T11:09:49.586Z,5.90
2018-03-26T11:10:52.053Z,6.47
2018-03-26T11:11:54.525Z,3.87
2018-03-26T11:12:56.999Z,5.57
2018-03-26T11:13:59.461Z,6.00
2018-03-26T11:15:02.249Z,5.65
2018-03-26T11:16:05.485Z,3.12
2018-03-26T11:17:07.958Z,4.80
2018-03-26T11:18:10.445Z,4.28
2018-03-26T11:19:12.984Z,5.57
2018-03-26T11:20:15.466Z,7.25
2018-03-26T11:21:17.946Z,5.95
2018-03-26T11:22:20.425Z,5.35
2018-03-26T11:23:23.662Z,8.05
2018-03-26T11:24:26.133Z,6.62
2018-03-26T11:25:28.683Z,5.47
2018-03-26T11:26:31.146Z,4.90
2018-03-26T11:27:33.616Z,7.25
2018-03-26T11:28:36.092Z,3.90
2018-03-26T11:29:39.149Z,3.83
2018-03-26T11:30:41.631Z,3.85
2018-03-26T11:31:44.148Z,4.62
2018-03-26T11:32:48.203Z,5.53
2018-03-26T11:33:50.677Z,6.75
2018-03-26T11:34:53.148Z,4.50
2018-03-26T11:35:55.648Z,6.47
2018-03-26T11:36:58.122Z,7.20
2018-03-26T11:38:00.589Z,8.45
2018-03-26T11:39:03.058Z,9.30
2018-03-26T11:40:05.552Z,6.82
2018-03-26T11:41:08.062Z,6.85
2018-03-26T11:42:11.316Z,5.87
2018-03-26T11:43:13.799Z,8.57
2018-03-26T11:44:17.049Z,5.00
2018-03-26T11:45:19.518Z,5.90
2018-03-26T11:46:22.010Z,7.57
2018-03-26T11:47:25.242Z,6.45
2018-03-26T11:48:27.723Z,6.62
2018-03-26T11:49:30.202Z,7.05
2018-03-26T11:50:32.682Z,5.32
2018-03-26T11:51:35.942Z,7.68
2018-03-26T11:52:38.406Z,8.60
2018-03-26T11:53:41.294Z,6.50
2018-03-26T11:54:43.778Z,8.85
2018-03-26T11:55:47.014Z,6.68
2018-03-26T11:56:49.525Z,7.53
2018-03-26T11:57:52.777Z,7.80
2018-03-26T11:58:55.271Z,4.05
2018-03-26T11:59:58.509Z,5.50
2018-03-26T12:01:01.002Z,4.10
2018-03-26T12:02:03.529Z,7.10
2018-03-26T12:03:05.984Z,5.85
2018-03-26T12:04:08.459Z,5.80
2018-03-26T12:05:10.959Z,5.78
2018-03-26T12:06:13.438Z,6.15
2018-03-26T12:07:16.711Z,6.68
2018-03-26T12:08:19.222Z,6.45
2018-03-26T12:09:21.710Z,4.82
2018-03-26T12:10:24.231Z,6.40
2018-03-26T12:11:27.530Z,7.28
2018-03-26T12:12:30.022Z,7.12
2018-03-26T12:13:32.490Z,9.18
2018-03-26T12:14:35.030Z,8.13
2018-03-26T12:15:38.276Z,6.35
2018-03-26T12:16:40.752Z,8.30
2018-03-26T12:17:44.013Z,7.20
2018-03-26T12:18:46.488Z,5.65
2018-03-26T12:20:01.538Z,7.47
2018-03-26T12:21:04.002Z,4.87
2018-03-26T12:22:06.511Z,4.97
2018-03-26T12:23:20.999Z,5.47
2018-03-26T12:24:35.413Z,4.65
2018-03-26T12:25:37.881Z,6.80
2018-03-26T12:26:40.387Z,8.50
2018-03-26T12:27:54.812Z,5.57
2018-03-26T12:29:09.069Z,6.55
2018-03-26T12:30:22.090Z,7.70
2018-03-26T12:31:25.341Z,7.00
2018-03-26T12:32:27.875Z,8.02
2018-03-26T12:33:30.343Z,7.18
2018-03-26T12:34:44.882Z,6.37
2018-03-26T12:36:00.277Z,6.72
2018-03-26T12:37:02.765Z,6.72
2018-03-26T12:38:05.308Z,5.50
2018-03-26T12:39:07.802Z,5.80
2018-03-26T12:40:22.324Z,4.78
2018-03-26T12:41:24.794Z,3.95
2018-03-26T12:42:27.264Z,4.50
2018-03-26T12:43:29.746Z,4.43
2018-03-26T12:44:44.019Z,5.85
2018-03-26T12:47:23.572Z,6.07
2018-03-26T12:48:26.070Z,4.53
2018-03-26T12:49:28.534Z,4.47
2018-03-26T12:50:43.592Z,8.90
2018-03-26T12:51:57.998Z,6.15
2018-03-26T12:53:00.474Z,3.47
2018-03-26T12:54:02.946Z,1.58
2018-03-26T12:55:05.406Z,5.68
2018-03-26T12:56:07.875Z,3.30
2018-03-26T12:57:22.318Z,5.90
2018-03-26T12:58:45.730Z,6.80
2018-03-26T12:59:48.963Z,6.28
2018-03-26T13:01:03.398Z,6.90
2018-03-26T13:02:17.821Z,6.18
2018-03-26T13:03:20.286Z,9.77
2018-03-26T13:04:22.789Z,6.07
2018-03-26T13:05:25.254Z,5.80
2018-03-26T13:06:27.726Z,5.70
2018-03-26T13:07:30.207Z,7.45
2018-03-26T13:08:33.485Z,4.87
2018-03-26T13:09:35.961Z,6.32
2018-03-26T13:10:38.428Z,4.85
2018-03-26T13:11:40.897Z,5.55
2018-03-26T13:12:43.373Z,5.20
2018-03-26T13:13:46.674Z,4.40
2018-03-26T13:14:49.881Z,6.07
2018-03-26T13:15:52.355Z,5.85
2018-03-26T13:16:54.836Z,6.30
2018-03-26T13:17:57.322Z,3.92
2018-03-26T13:18:59.837Z,5.95
2018-03-26T13:20:02.330Z,5.97
2018-03-26T13:21:04.796Z,6.55
2018-03-26T13:22:07.266Z,8.95
2018-03-26T13:23:09.759Z,7.45
2018-03-26T13:24:13.062Z,5.37
2018-03-26T13:25:15.529Z,6.78
2018-03-26T13:26:18.006Z,9.18
2018-03-26T13:27:20.475Z,8.73
2018-03-26T13:28:22.972Z,4.72
2018-03-26T13:29:25.518Z,6.15
2018-03-26T13:30:28.018Z,2.50
2018-03-26T13:31:30.489Z,2.53
2018-03-26T13:32:33.736Z,4.47
2018-03-26T13:33:36.217Z,6.10
2018-03-26T13:34:38.713Z,5.55
2018-03-26T13:35:41.959Z,3.97